Time;durP1;ratioP1;P1;durP2;ratioP2;P2;SDS_P1;SDS_P2;PMS_P1;PMS_P2;Temp;Humidity;BMP_temperature;BMP_pressure;BME280_temperature;BME280_humidity;BME280_pressure;Samples;Min_cycle;Max_cycle;Signal;HPM_P1;HPM_P2
2023/04/06 00:02:08;;;;;;;8.60;8.03;;;;;;;0.86;100.00;102014.72;5011657;28;20532;-44
2023/04/06 00:04:36;;;;;;;8.50;7.77;;;;;;;0.81;100.00;102008.91;5012326;28;20528;-45
2023/04/06 00:07:04;;;;;;;9.17;8.33;;;;;;;0.76;100.00;102008.38;5012182;28;20471;-45
2023/04/06 00:09:32;;;;;;;8.50;7.70;;;;;;;0.72;100.00;102005.13;5011614;28;20772;-43
2023/04/06 00:12:01;;;;;;;8.27;7.67;;;;;;;0.67;100.00;102001.13;5011551;28;20811;-46
2023/04/06 00:14:29;;;;;;;9.03;7.30;;;;;;;0.60;100.00;101992.00;5012154;28;20428;-44
2023/04/06 00:16:57;;;;;;;9.67;8.83;;;;;;;0.54;100.00;101990.59;5011586;28;21006;-43
2023/04/06 00:19:25;;;;;;;9.93;9.13;;;;;;;0.49;100.00;101993.53;5012100;28;20433;-47
2023/04/06 00:21:52;;;;;;;9.23;8.40;;;;;;;0.44;100.00;101993.00;5011413;28;20429;-43
2023/04/06 00:24:20;;;;;;;8.50;7.90;;;;;;;0.43;100.00;101987.84;5011993;28;20524;-46
2023/04/06 00:26:48;;;;;;;11.63;8.27;;;;;;;0.40;100.00;101994.13;5012145;28;20889;-44
2023/04/06 00:29:17;;;;;;;9.70;8.90;;;;;;;0.36;100.00;101989.19;5012076;28;20432;-45
2023/04/06 00:31:45;;;;;;;9.53;8.67;;;;;;;0.30;100.00;101985.16;5011721;28;20433;-44
2023/04/06 00:34:14;;;;;;;9.17;8.37;;;;;;;0.28;100.00;101989.69;5011534;28;21002;-44
2023/04/06 00:36:42;;;;;;;9.27;8.43;;;;;;;0.25;100.00;101986.41;5011555;28;20469;-43
2023/04/06 00:39:10;;;;;;;9.73;8.90;;;;;;;0.22;100.00;101984.00;5011962;28;20437;-43
2023/04/06 00:41:40;;;;;;;9.37;8.47;;;;;;;0.18;100.00;101983.34;5011661;28;20440;-43
2023/04/06 00:44:07;;;;;;;9.40;8.60;;;;;;;0.16;100.00;101980.00;5011125;28;20511;-48
2023/04/06 00:46:36;;;;;;;9.17;8.50;;;;;;;0.14;100.00;101967.94;5011536;28;20460;-44
2023/04/06 00:49:04;;;;;;;11.20;10.20;;;;;;;0.10;100.00;101964.66;5011678;28;20460;-45
2023/04/06 00:51:32;;;;;;;9.70;9.10;;;;;;;0.02;100.00;101974.81;5011053;28;20491;-43
2023/04/06 00:54:00;;;;;;;9.93;9.23;;;;;;;-0.04;100.00;101969.97;5011278;28;20469;-44
2023/04/06 00:56:28;;;;;;;11.27;10.27;;;;;;;-0.08;100.00;101968.47;5011327;28;20477;-44
2023/04/06 00:58:56;;;;;;;10.03;9.33;;;;;;;-0.09;100.00;101972.03;5011458;28;20437;-45
2023/04/06 01:01:25;;;;;;;10.27;9.50;;;;;;;-0.12;100.00;101967.81;5010940;28;20443;-43
2023/04/06 01:03:55;;;;;;;10.20;9.20;;;;;;;-0.12;100.00;101962.56;5010887;28;20464;-43
2023/04/06 01:06:22;;;;;;;11.27;10.37;;;;;;;-0.16;100.00;101961.09;5010550;28;20459;-46
2023/04/06 01:08:50;;;;;;;10.17;9.47;;;;;;;-0.18;100.00;101967.38;5011526;28;20440;-45
2023/04/06 01:11:18;;;;;;;12.07;10.83;;;;;;;-0.21;100.00;101954.47;5011054;28;20433;-44
2023/04/06 01:13:46;;;;;;;11.20;10.20;;;;;;;-0.21;100.00;101955.28;5010784;28;20539;-43
2023/04/06 01:16:14;;;;;;;11.87;10.87;;;;;;;-0.25;100.00;101953.81;5011457;28;20544;-44
2023/04/06 01:18:42;;;;;;;11.67;10.77;;;;;;;-0.25;100.00;101945.13;5012222;28;20441;-46
2023/04/06 01:21:15;;;;;;;11.57;10.47;;;;;;;-0.25;100.00;101948.56;5012961;28;20455;-45
2023/04/06 01:23:45;;;;;;;11.67;10.87;;;;;;;-0.28;100.00;101938.28;5012137;28;20990;-44
2023/04/06 01:26:14;;;;;;;11.10;10.23;;;;;;;-0.32;100.00;101944.66;5012615;28;20531;-47
2023/04/06 01:28:41;;;;;;;11.63;10.63;;;;;;;-0.35;100.00;101947.47;5012855;28;20487;-45
2023/04/06 01:31:10;;;;;;;11.80;9.90;;;;;;;-0.37;100.00;101941.50;5012916;28;20957;-44
2023/04/06 01:33:37;;;;;;;10.23;9.53;;;;;;;-0.40;100.00;101944.31;5012203;28;20465;-46
2023/04/06 01:36:06;;;;;;;11.27;10.30;;;;;;;-0.40;100.00;101941.69;5012908;28;20433;-48
2023/04/06 01:38:33;;;;;;;10.23;9.53;;;;;;;-0.39;100.00;101950.41;5012863;28;20997;-42
2023/04/06 01:41:03;;;;;;;11.23;10.43;;;;;;;-0.39;100.00;101953.03;5012663;28;20437;-43
2023/04/06 01:43:31;;;;;;;10.70;9.03;;;;;;;-0.39;100.00;101951.25;5012454;28;20487;-43
2023/04/06 01:45:58;;;;;;;10.90;10.03;;;;;;;-0.40;100.00;101946.94;5012763;28;20946;-42
2023/04/06 01:48:26;;;;;;;10.67;9.57;;;;;;;-0.41;100.00;101942.63;5012888;28;20429;-47
2023/04/06 01:50:54;;;;;;;10.73;9.93;;;;;;;-0.43;100.00;101941.88;5012990;28;20444;-45
2023/04/06 01:53:22;;;;;;;10.40;9.40;;;;;;;-0.46;100.00;101938.59;5012905;28;20457;-47
2023/04/06 01:55:50;;;;;;;11.97;11.00;;;;;;;-0.48;100.00;101936.09;5012955;28;20656;-44
2023/04/06 01:58:19;;;;;;;10.63;9.83;;;;;;;-0.50;100.00;101939.72;5013242;28;20488;-48
2023/04/06 02:00:47;;;;;;;12.10;11.10;;;;;;;-0.57;100.00;101936.69;5013175;28;20973;-43
2023/04/06 02:03:15;;;;;;;11.97;10.80;;;;;;;-0.63;100.00;101935.25;5012739;28;20461;-49
2023/04/06 02:05:43;;;;;;;11.70;10.80;;;;;;;-0.67;100.00;101935.56;5013057;28;20437;-43
2023/04/06 02:08:10;;;;;;;10.80;10.00;;;;;;;-0.70;100.00;101936.59;5012950;28;20993;-44
2023/04/06 02:10:38;;;;;;;10.67;9.80;;;;;;;-0.74;100.00;101936.88;5012958;28;20437;-44
2023/04/06 02:13:06;;;;;;;9.73;8.93;;;;;;;-0.77;100.00;101927.41;5012236;28;21028;-44
2023/04/06 02:15:35;;;;;;;9.67;8.90;;;;;;;-0.79;100.00;101938.94;5013551;28;20499;-46
2023/04/06 02:18:03;;;;;;;11.03;9.93;;;;;;;-0.81;100.00;101935.56;5013691;28;20477;-46
2023/04/06 02:20:31;;;;;;;11.23;10.23;;;;;;;-0.82;100.00;101934.72;5016998;28;20433;-47
2023/04/06 02:23:00;;;;;;;10.30;9.50;;;;;;;-0.82;100.00;101937.34;5015924;28;20838;-43
2023/04/06 02:25:28;;;;;;;10.30;9.37;;;;;;;-0.77;100.00;101934.44;5016847;28;20587;-45
2023/04/06 02:27:56;;;;;;;11.70;10.70;;;;;;;-0.73;100.00;101936.78;5016296;28;20544;-43
2023/04/06 02:30:23;;;;;;;12.87;11.47;;;;;;;-0.69;100.00;101926.97;5016530;28;20437;-51
2023/04/06 02:32:52;;;;;;;12.23;11.23;;;;;;;-0.65;100.00;101929.28;5015897;28;20463;-44
2023/04/06 02:35:20;;;;;;;15.07;13.80;;;;;;;-0.63;100.00;101930.00;5016238;28;20476;-44
2023/04/06 02:37:48;;;;;;;13.60;12.50;;;;;;;-0.65;100.00;101934.53;5015717;28;20473;-44
2023/04/06 02:40:16;;;;;;;11.63;10.57;;;;;;;-0.68;100.00;101926.00;5016174;28;20429;-45
2023/04/06 02:42:44;;;;;;;12.10;11.10;;;;;;;-0.70;100.00;101925.28;5015834;28;20464;-43
2023/04/06 02:45:11;;;;;;;12.87;11.77;;;;;;;-0.75;100.00;101922.09;5015955;28;20433;-43
2023/04/06 02:47:39;;;;;;;11.67;10.57;;;;;;;-0.79;100.00;101916.22;5015959;28;20768;-43
2023/04/06 02:50:09;;;;;;;12.00;11.00;;;;;;;-0.84;100.00;101926.13;5016107;28;20444;-46
2023/04/06 02:52:37;;;;;;;11.67;10.77;;;;;;;-0.84;100.00;101928.75;5015464;28;20997;-43
2023/04/06 02:55:07;;;;;;;10.33;9.60;;;;;;;-0.86;100.00;101930.59;5015887;28;20447;-46
2023/04/06 02:57:35;;;;;;;11.70;10.60;;;;;;;-0.90;100.00;101923.91;5015678;28;20476;-44
2023/04/06 03:00:03;;;;;;;11.03;10.10;;;;;;;-0.92;100.00;101928.38;5016247;28;20444;-44
2023/04/06 03:02:31;;;;;;;12.60;11.60;;;;;;;-0.92;100.00;101925.75;5015438;28;20832;-44
2023/04/06 03:04:59;;;;;;;12.13;10.97;;;;;;;-0.92;100.00;101922.28;5016176;28;20440;-46
2023/04/06 03:07:28;;;;;;;12.40;11.30;;;;;;;-0.92;100.00;101923.13;5015947;28;20460;-44
2023/04/06 03:09:56;;;;;;;17.23;12.20;;;;;;;-0.94;100.00;101921.53;5015812;28;20429;-48
2023/04/06 03:12:24;;;;;;;11.97;10.87;;;;;;;-0.97;100.00;101922.56;5014486;28;20461;-43
2023/04/06 03:14:52;;;;;;;11.87;10.80;;;;;;;-0.99;100.00;101919.22;5015694;28;20441;-45
2023/04/06 03:17:19;;;;;;;12.33;11.13;;;;;;;-1.00;100.00;101921.91;5015007;28;20982;-44
2023/04/06 03:19:47;;;;;;;14.57;13.10;;;;;;;-1.03;100.00;101916.88;5015720;28;20447;-47
2023/04/06 03:22:15;;;;;;;12.10;11.10;;;;;;;-1.06;100.00;101920.53;5015022;28;20453;-47
2023/04/06 03:24:44;;;;;;;11.70;10.60;;;;;;;-1.09;100.00;101919.84;5015678;28;20946;-47
2023/04/06 03:27:12;;;;;;;12.07;11.07;;;;;;;-1.09;100.00;101918.09;5015627;28;20459;-48
2023/04/06 03:29:39;;;;;;;12.70;11.57;;;;;;;-1.12;100.00;101923.50;5014981;28;20452;-46
2023/04/06 03:32:07;;;;;;;13.80;12.60;;;;;;;-1.14;100.00;101920.16;5014935;28;20496;-45
2023/04/06 03:34:37;;;;;;;13.23;12.00;;;;;;;-1.18;100.00;101921.25;5015547;28;20448;-45
2023/04/06 03:37:05;;;;;;;14.13;12.80;;;;;;;-1.20;100.00;101924.00;5015185;28;20449;-46
2023/04/06 03:39:37;;;;;;;14.53;12.67;;;;;;;-1.23;100.00;101923.31;5015324;28;20886;-44
2023/04/06 03:42:06;;;;;;;12.87;11.77;;;;;;;-1.28;100.00;101923.59;5014666;28;20472;-44
2023/04/06 03:44:34;;;;;;;13.17;11.97;;;;;;;-1.28;100.00;101920.13;5015295;28;20838;-45
2023/04/06 03:47:02;;;;;;;13.23;12.13;;;;;;;-1.31;100.00;101926.38;5015211;28;20457;-48
2023/04/06 03:49:30;;;;;;;14.27;12.90;;;;;;;-1.33;100.00;101925.66;5015653;28;20445;-46
2023/04/06 03:51:58;;;;;;;13.57;12.30;;;;;;;-1.32;100.00;101929.97;5014301;28;20448;-45
2023/04/06 03:54:26;;;;;;;14.40;13.00;;;;;;;-1.30;100.00;101924.63;5015242;28;20464;-44
2023/04/06 03:56:53;;;;;;;14.27;13.07;;;;;;;-1.30;100.00;101930.69;5015301;28;20453;-46
2023/04/06 03:59:22;;;;;;;14.57;13.10;;;;;;;-1.29;100.00;101928.94;5014989;28;20834;-43
2023/04/06 04:01:50;;;;;;;15.07;13.77;;;;;;;-1.25;100.00;101928.63;5014865;28;20433;-44
2023/04/06 04:04:18;;;;;;;16.40;14.10;;;;;;;-1.23;100.00;101928.56;5014675;28;20535;-45
2023/04/06 04:06:46;;;;;;;15.53;14.07;;;;;;;-1.21;100.00;101934.53;5014499;28;20463;-45
2023/04/06 04:09:14;;;;;;;16.33;14.70;;;;;;;-1.20;100.00;101937.06;5014252;28;20462;-46
2023/04/06 04:11:42;;;;;;;15.37;13.90;;;;;;;-1.19;100.00;101923.03;5014087;28;20520;-45
2023/04/06 04:14:09;;;;;;;16.80;15.30;;;;;;;-1.17;100.00;101934.28;5014093;28;20550;-47
2023/04/06 04:16:39;;;;;;;15.63;14.10;;;;;;;-1.19;100.00;101936.13;5014430;28;20484;-47
2023/04/06 04:19:07;;;;;;;15.93;14.33;;;;;;;-1.20;100.00;101937.06;5014740;28;20530;-44
2023/04/06 04:21:43;;;;;;;16.57;15.07;;;;;;;-1.22;100.00;101930.22;5014220;28;20871;-46
2023/04/06 04:24:11;;;;;;;15.80;14.17;;;;;;;-1.24;100.00;101929.47;5014245;28;20475;-44
2023/04/06 04:26:40;;;;;;;19.87;15.70;;;;;;;-1.28;100.00;101925.34;5014493;28;20457;-43
2023/04/06 04:29:08;;;;;;;16.43;14.93;;;;;;;-1.29;100.00;101934.16;5014554;28;20886;-46
2023/04/06 04:31:36;;;;;;;16.33;13.80;;;;;;;-1.31;100.00;101928.16;5013592;28;20436;-45
2023/04/06 04:34:06;;;;;;;16.63;15.00;;;;;;;-1.33;100.00;101932.66;5013792;28;20495;-44
2023/04/06 04:36:34;;;;;;;15.00;13.80;;;;;;;-1.36;100.00;101925.81;5014362;28;20862;-46
2023/04/06 04:39:02;;;;;;;16.93;14.57;;;;;;;-1.38;100.00;101925.09;5014090;28;20560;-44
2023/04/06 04:41:30;;;;;;;16.17;14.70;;;;;;;-1.36;100.00;101930.22;5013438;28;20434;-43
2023/04/06 04:43:58;;;;;;;72.00;36.87;;;;;;;-1.37;100.00;101929.38;5013460;28;21194;-46
2023/04/06 04:46:26;;;;;;;40.80;26.17;;;;;;;-1.36;100.00;101933.69;5014409;28;20470;-46
2023/04/06 04:48:54;;;;;;;19.70;16.70;;;;;;;-1.34;100.00;101929.19;5014245;28;20517;-46
2023/04/06 04:51:24;;;;;;;19.73;16.07;;;;;;;-1.34;100.00;101931.81;5012959;28;20436;-48
2023/04/06 04:53:52;;;;;;;17.83;16.10;;;;;;;-1.31;100.00;101928.16;5012006;28;20480;-45
2023/04/06 04:56:19;;;;;;;24.73;17.10;;;;;;;-1.31;100.00;101931.63;5013307;28;20437;-45
2023/04/06 04:58:47;;;;;;;15.33;13.80;;;;;;;-1.30;100.00;101930.69;5013438;28;20480;-46
2023/04/06 05:01:15;;;;;;;17.60;15.00;;;;;;;-1.26;100.00;101931.34;5006701;28;20983;-44
2023/04/06 05:03:43;;;;;;;15.83;14.27;;;;;;;-1.22;100.00;101935.47;4990758;28;20480;-43
2023/04/06 05:06:11;;;;;;;16.23;14.63;;;;;;;-1.14;100.00;101935.84;4992591;28;20940;-43
2023/04/06 05:08:41;;;;;;;17.20;15.50;;;;;;;-1.05;100.00;101931.84;4992259;28;20465;-44
2023/04/06 05:11:10;;;;;;;16.63;14.93;;;;;;;-0.97;100.00;101932.19;4992563;28;20433;-42
2023/04/06 05:13:38;;;;;;;17.17;15.47;;;;;;;-0.88;100.00;101939.50;5001201;28;20467;-43
2023/04/06 05:16:06;;;;;;;17.50;15.70;;;;;;;-0.80;100.00;101932.84;5010790;28;20433;-43
2023/04/06 05:18:34;;;;;;;17.10;15.30;;;;;;;-0.74;100.00;101926.38;5011030;28;20480;-44
2023/04/06 05:21:02;;;;;;;18.37;16.40;;;;;;;-0.70;100.00;101933.97;5009391;28;20847;-45
2023/04/06 05:23:30;;;;;;;17.87;16.10;;;;;;;-0.63;100.00;101932.63;5008589;28;20483;-44
2023/04/06 05:25:59;;;;;;;17.00;15.30;;;;;;;-0.58;100.00;101930.59;5012597;28;20437;-47
2023/04/06 05:28:26;;;;;;;18.23;16.43;;;;;;;-0.52;100.00;101934.59;5012346;28;20433;-44
2023/04/06 05:30:54;;;;;;;16.10;14.57;;;;;;;-0.49;100.00;101930.94;5011916;28;20957;-44
2023/04/06 05:33:22;;;;;;;14.87;13.67;;;;;;;-0.42;100.00;101937.50;5011512;28;20490;-44
2023/04/06 05:35:50;;;;;;;16.27;14.57;;;;;;;-0.36;100.00;101932.66;5011900;28;20433;-44
2023/04/06 05:38:17;;;;;;;21.20;16.80;;;;;;;0.58;100.00;101934.34;5011942;28;20460;-44
2023/04/06 05:40:45;;;;;;;16.20;14.70;;;;;;;1.83;100.00;101921.09;5011734;28;20433;-44
2023/04/06 05:43:15;;;;;;;16.20;14.53;;;;;;;3.10;100.00;101928.06;5011225;28;20488;-46
2023/04/06 05:45:45;;;;;;;14.63;13.30;;;;;;;3.83;100.00;101923.03;5011884;28;20437;-49
2023/04/06 05:48:14;;;;;;;19.03;14.53;;;;;;;3.96;100.00;101919.38;5011690;28;20449;-45
2023/04/06 05:50:41;;;;;;;14.43;13.00;;;;;;;3.79;100.00;101921.59;5011705;28;21075;-46
2023/04/06 05:53:09;;;;;;;19.73;16.07;;;;;;;3.81;100.00;101922.31;5012661;28;20483;-47
2023/04/06 05:55:37;;;;;;;16.10;14.70;;;;;;;4.94;100.00;101921.63;5015705;28;20931;-45
2023/04/06 05:58:05;;;;;;;14.93;13.40;;;;;;;6.18;100.00;101915.84;5015531;28;20460;-43
2023/04/06 06:00:34;;;;;;;15.80;14.40;;;;;;;7.35;100.00;101918.09;5015546;28;20522;-46
2023/04/06 06:03:03;;;;;;;17.23;15.73;;;;;;;8.36;100.00;101918.66;5015062;28;20468;-49
2023/04/06 06:05:31;;;;;;;15.97;14.47;;;;;;;9.21;100.00;101912.56;5016142;28;20429;-47
2023/04/06 06:08:01;;;;;;;14.80;13.30;;;;;;;9.97;100.00;101906.13;5015727;28;20523;-44
2023/04/06 06:10:30;;;;;;;14.20;12.80;;;;;;;10.53;100.00;101905.38;5015482;28;20416;-45
2023/04/06 06:12:57;;;;;;;14.77;13.47;;;;;;;11.09;91.12;101909.75;5015064;28;20464;-47
2023/04/06 06:15:25;;;;;;;15.50;13.93;;;;;;;11.65;78.54;101906.00;5015241;28;20761;-44
2023/04/06 06:17:55;;;;;;;14.97;12.80;;;;;;;12.31;77.43;101901.91;5015431;28;20499;-46
2023/04/06 06:20:23;;;;;;;15.77;13.90;;;;;;;12.70;70.76;101907.94;5015419;28;20519;-49
2023/04/06 06:22:50;;;;;;;16.30;14.80;;;;;;;13.14;66.04;101913.34;5014743;28;20465;-50
2023/04/06 06:25:18;;;;;;;14.73;13.40;;;;;;;13.51;62.92;101911.56;5015298;28;20437;-45
2023/04/06 06:27:46;;;;;;;12.83;11.73;;;;;;;13.88;63.23;101905.19;5015358;28;20858;-48
2023/04/06 06:30:14;;;;;;;13.20;12.20;;;;;;;14.22;61.92;101902.66;5015304;28;20429;-44
2023/04/06 06:32:42;;;;;;;14.63;13.33;;;;;;;14.46;59.86;101904.13;5014423;28;20464;-44
2023/04/06 06:35:11;;;;;;;15.63;14.33;;;;;;;14.61;57.26;101908.38;5015028;28;20440;-48
2023/04/06 06:37:39;;;;;;;15.43;13.93;;;;;;;14.78;58.88;101900.88;5014868;28;20460;-44
2023/04/06 06:40:08;;;;;;;14.00;13.00;;;;;;;15.01;56.87;101906.00;5015025;28;20475;-47
2023/04/06 06:42:36;;;;;;;16.17;14.57;;;;;;;15.08;51.55;101902.31;5014291;28;20464;-45
2023/04/06 06:45:04;;;;;;;14.67;13.37;;;;;;;15.07;51.67;101900.66;5015221;28;20437;-47
2023/04/06 06:47:32;;;;;;;13.40;12.17;;;;;;;15.08;51.13;101901.50;5014525;28;20966;-45
2023/04/06 06:50:00;;;;;;;14.00;12.77;;;;;;;15.08;51.77;101899.66;5014690;28;20445;-48
2023/04/06 06:52:29;;;;;;;14.63;13.40;;;;;;;15.41;54.11;101905.19;5014272;28;20456;-44
2023/04/06 06:54:57;;;;;;;15.03;13.20;;;;;;;15.26;49.60;101896.44;5014542;28;20907;-47
2023/04/06 06:57:27;;;;;;;13.80;12.47;;;;;;;15.37;53.26;101896.69;5014434;28;20461;-47
2023/04/06 06:59:54;;;;;;;13.37;12.17;;;;;;;15.43;51.90;101903.94;5014536;28;20476;-43
2023/04/06 07:02:22;;;;;;;11.90;11.00;;;;;;;15.37;51.77;101899.38;5013970;28;20461;-43
2023/04/06 07:04:50;;;;;;;12.90;11.90;;;;;;;15.27;50.18;101895.38;5013150;28;20504;-43
2023/04/06 07:07:18;;;;;;;13.90;12.03;;;;;;;15.33;48.40;101895.41;5014301;28;20456;-42
2023/04/06 07:09:47;;;;;;;15.10;13.80;;;;;;;14.93;46.00;101897.03;5014297;28;20433;-44
2023/04/06 07:12:16;;;;;;;13.20;12.10;;;;;;;15.17;50.71;101886.88;5013852;28;20543;-44
2023/04/06 07:14:44;;;;;;;15.80;14.40;;;;;;;15.02;50.30;101889.69;5014394;28;20754;-43
2023/04/06 07:17:11;;;;;;;13.13;12.03;;;;;;;14.95;51.06;101895.00;5013974;28;20563;-43
2023/04/06 07:19:40;;;;;;;13.10;11.90;;;;;;;14.24;47.78;101888.03;5014193;28;20492;-45
2023/04/06 07:22:08;;;;;;;12.07;11.13;;;;;;;13.58;50.20;101902.59;5013394;28;20437;-43
2023/04/06 07:24:36;;;;;;;11.00;10.10;;;;;;;13.20;50.94;101895.72;5014249;28;20428;-44
2023/04/06 07:27:05;;;;;;;11.73;10.60;;;;;;;12.45;51.41;101898.47;5013835;28;20457;-44
2023/04/06 07:29:32;;;;;;;10.90;9.90;;;;;;;12.25;54.28;101889.28;5014235;28;20549;-41
2023/04/06 07:32:00;;;;;;;12.23;10.80;;;;;;;11.93;54.88;101900.22;5013308;28;20441;-45
2023/04/06 07:34:28;;;;;;;12.37;11.20;;;;;;;11.53;54.27;101894.06;5013771;28;20431;-46
2023/04/06 07:36:56;;;;;;;11.13;10.10;;;;;;;11.01;56.44;101896.44;5013594;28;20552;-46
2023/04/06 07:39:26;;;;;;;11.40;10.40;;;;;;;10.64;57.77;101896.19;5013571;28;20436;-44
2023/04/06 07:41:53;;;;;;;11.00;10.00;;;;;;;10.44;59.47;101901.03;5013258;28;20444;-46
2023/04/06 07:44:23;;;;;;;10.30;9.30;;;;;;;10.44;60.07;101902.88;5013625;28;20429;-47
2023/04/06 07:46:50;;;;;;;11.80;10.37;;;;;;;10.34;61.08;101895.03;5013789;28;21026;-45
2023/04/06 07:49:20;;;;;;;12.57;11.50;;;;;;;10.41;60.96;101897.88;5013392;28;20950;-46
2023/04/06 07:51:48;;;;;;;11.97;10.23;;;;;;;10.38;62.31;101896.38;5013825;28;20433;-47
2023/04/06 07:54:16;;;;;;;11.30;10.20;;;;;;;10.49;61.42;101896.03;5013449;28;20532;-45
2023/04/06 07:56:44;;;;;;;9.43;8.57;;;;;;;10.80;62.37;101896.16;5013579;28;20457;-46
2023/04/06 07:59:13;;;;;;;13.07;11.80;;;;;;;10.88;61.67;101889.97;5013393;28;20448;-43
2023/04/06 08:01:42;;;;;;;14.90;11.77;;;;;;;11.02;62.74;101889.28;5013460;28;20838;-45
2023/04/06 08:04:10;;;;;;;11.33;9.47;;;;;;;11.25;61.51;101881.34;5012938;28;20465;-47
2023/04/06 08:06:38;;;;;;;11.20;10.07;;;;;;;11.17;58.63;101886.72;5013504;28;20548;-50
2023/04/06 08:09:06;;;;;;;11.50;10.40;;;;;;;11.28;59.51;101891.69;5013515;28;20432;-46
2023/04/06 08:11:34;;;;;;;11.10;10.00;;;;;;;10.63;58.84;101880.38;5013417;28;20436;-44
2023/04/06 08:14:01;;;;;;;10.53;9.53;;;;;;;10.60;59.75;101886.03;5012805;28;20843;-43
2023/04/06 08:16:29;;;;;;;11.33;10.20;;;;;;;10.51;60.62;101878.03;5012810;28;20535;-46
2023/04/06 08:18:58;;;;;;;10.33;9.53;;;;;;;10.80;60.96;101888.16;5013045;28;20440;-45
2023/04/06 08:21:26;;;;;;;11.33;10.30;;;;;;;10.87;61.43;101888.31;5013007;28;20882;-49
2023/04/06 08:23:54;;;;;;;11.93;10.73;;;;;;;10.86;59.70;101883.97;5012527;28;20461;-45
2023/04/06 08:26:22;;;;;;;11.73;10.77;;;;;;;10.79;59.45;101886.47;5012881;28;20503;-46
2023/04/06 08:28:50;;;;;;;11.50;10.33;;;;;;;10.88;60.02;101885.47;5012840;28;20516;-50
2023/04/06 08:31:18;;;;;;;12.47;11.37;;;;;;;10.67;57.93;101887.84;5012745;28;20433;-45
2023/04/06 08:33:45;;;;;;;12.57;11.43;;;;;;;10.56;54.38;101874.88;5012424;28;20551;-44
2023/04/06 08:36:18;;;;;;;12.67;11.47;;;;;;;10.62;55.00;101878.69;5012594;28;20453;-46
2023/04/06 08:38:45;;;;;;;13.13;12.03;;;;;;;10.74;55.15;101885.34;5012898;28;20420;-45
2023/04/06 08:41:14;;;;;;;12.53;11.43;;;;;;;10.87;54.62;101872.31;5012713;28;20851;-44
2023/04/06 08:43:44;;;;;;;13.33;12.23;;;;;;;10.49;53.56;101879.19;5012013;28;20464;-43
2023/04/06 08:46:12;;;;;;;11.10;10.30;;;;;;;10.55;52.99;101873.19;5012565;28;20414;-42
2023/04/06 08:48:42;;;;;;;12.13;10.37;;;;;;;10.55;52.70;101876.69;5012455;28;20483;-45
2023/04/06 08:51:10;;;;;;;11.03;10.13;;;;;;;10.74;52.83;101870.16;5012781;28;20410;-48
2023/04/06 08:53:42;;;;;;;12.30;11.30;;;;;;;10.55;51.29;101871.34;5011935;28;20469;-50
2023/04/06 08:56:11;;;;;;;10.93;10.03;;;;;;;10.67;49.79;101866.50;5012579;28;20421;-45
2023/04/06 08:58:41;;;;;;;11.67;10.70;;;;;;;10.95;50.84;101869.59;5012645;28;20799;-47
2023/04/06 09:01:11;;;;;;;12.00;11.00;;;;;;;10.97;50.88;101878.25;5012277;28;20567;-44
2023/04/06 09:03:41;;;;;;;11.40;10.63;;;;;;;10.95;49.79;101874.94;5011698;28;20950;-46
2023/04/06 09:06:09;;;;;;;10.43;9.63;;;;;;;10.91;49.45;101873.59;5012190;28;20769;-43
2023/04/06 09:08:41;;;;;;;10.33;9.63;;;;;;;11.10;49.12;101868.72;5012070;28;20445;-42
2023/04/06 09:11:10;;;;;;;10.53;9.63;;;;;;;11.12;49.04;101865.88;5012494;28;20780;-43
2023/04/06 09:13:49;;;;;;;12.33;10.97;;;;;;;11.30;48.83;101869.13;5011651;28;20461;-44
2023/04/06 09:16:17;;;;;;;9.70;8.90;;;;;;;11.14;47.73;101865.72;5012319;28;20525;-44
2023/04/06 09:18:45;;;;;;;10.33;9.63;;;;;;;11.07;47.15;101857.56;5012420;28;20844;-45
2023/04/06 09:21:13;;;;;;;10.83;9.93;;;;;;;11.18;47.77;101870.50;5011998;28;20472;-44
2023/04/06 09:23:42;;;;;;;10.20;9.40;;;;;;;11.13;47.38;101867.53;5011681;28;20993;-44
2023/04/06 09:26:11;;;;;;;10.57;9.70;;;;;;;11.16;46.87;101863.69;5012196;28;20453;-44
2023/04/06 09:28:46;;;;;;;10.50;9.67;;;;;;;11.30;47.11;101854.94;5011322;28;20425;-45
2023/04/06 09:31:16;;;;;;;11.90;9.90;;;;;;;11.45;46.51;101856.72;5012295;28;20579;-46
2023/04/06 09:33:46;;;;;;;9.47;8.87;;;;;;;11.53;44.61;101864.66;5011490;28;20489;-45
2023/04/06 09:36:15;;;;;;;11.27;10.40;;;;;;;11.33;44.08;101854.59;5012239;28;20495;-43
2023/04/06 09:38:56;;;;;;;10.77;9.97;;;;;;;11.45;44.31;101853.19;5012454;28;20769;-44
2023/04/06 09:41:25;;;;;;;10.77;10.03;;;;;;;11.62;45.67;101844.91;5011855;28;20519;-46
2023/04/06 09:44:02;;;;;;;11.07;10.20;;;;;;;11.38;44.46;101842.38;5011402;28;20475;-45
2023/04/06 09:46:32;;;;;;;13.07;11.20;;;;;;;11.36;43.72;101849.75;5012183;28;20452;-48
2023/04/06 09:49:19;;;;;;;11.33;10.27;;;;;;;11.26;45.06;101848.31;5011665;28;20452;-47
2023/04/06 09:51:53;;;;;;;10.43;9.43;;;;;;;11.10;44.18;101850.03;5011985;28;20429;-43
2023/04/06 09:54:23;;;;;;;10.90;10.00;;;;;;;11.29;45.26;101845.28;5011485;28;20803;-45
2023/04/06 09:56:57;;;;;;;9.87;9.17;;;;;;;11.23;44.39;101844.13;5011912;28;20808;-43
2023/04/06 09:59:32;;;;;;;9.70;8.70;;;;;;;11.22;42.75;101847.81;5011711;28;20443;-44
2023/04/06 10:02:01;;;;;;;9.60;8.80;;;;;;;11.48;44.25;101845.69;5011330;28;20591;-49
2023/04/06 10:04:37;;;;;;;9.60;9.00;;;;;;;11.82;43.88;101837.31;5011561;28;20440;-44
2023/04/06 10:07:07;;;;;;;9.77;9.07;;;;;;;11.84;42.07;101839.78;5010776;28;20457;-44
2023/04/06 10:09:38;;;;;;;9.50;8.80;;;;;;;12.01;44.01;101841.31;5011097;28;20433;-46
2023/04/06 10:12:06;;;;;;;9.27;8.60;;;;;;;12.28;43.45;101840.75;5010240;28;20436;-43
2023/04/06 10:14:36;;;;;;;10.70;9.90;;;;;;;12.35;43.18;101836.38;5010979;28;20923;-43
2023/04/06 10:17:05;;;;;;;9.23;8.53;;;;;;;12.55;42.63;101836.66;5011298;28;20457;-44
2023/04/06 10:19:40;;;;;;;11.20;10.30;;;;;;;12.13;41.30;101824.69;5011218;28;20441;-44
2023/04/06 10:22:11;;;;;;;9.50;8.80;;;;;;;12.21;42.08;101832.63;5010699;28;20482;-45
2023/04/06 10:24:41;;;;;;;9.10;8.50;;;;;;;12.41;41.35;101832.97;5011465;28;20421;-42
2023/04/06 10:27:10;;;;;;;8.77;8.00;;;;;;;12.37;41.16;101833.50;5011290;28;20515;-44
2023/04/06 10:29:46;;;;;;;8.40;7.70;;;;;;;12.12;40.30;101822.22;5010525;28;20413;-47
2023/04/06 10:32:14;;;;;;;8.47;7.60;;;;;;;11.89;40.16;101829.38;5010981;28;20530;-45
2023/04/06 10:34:42;;;;;;;7.50;7.00;;;;;;;11.79;39.45;101826.97;5011605;28;20516;-42
2023/04/06 10:37:18;;;;;;;9.07;7.80;;;;;;;11.84;40.81;101831.78;5011329;28;20461;-46
2023/04/06 10:39:48;;;;;;;9.33;8.57;;;;;;;11.76;41.46;101826.50;5013477;28;20413;-45
2023/04/06 10:42:16;;;;;;;8.37;7.77;;;;;;;12.05;41.36;101829.28;5012330;28;20986;-45
2023/04/06 10:44:45;;;;;;;7.43;6.83;;;;;;;11.80;39.18;101828.63;5014446;28;20417;-44
2023/04/06 10:47:19;;;;;;;8.47;7.87;;;;;;;11.68;39.03;101820.16;5014435;28;20457;-45
2023/04/06 10:49:47;;;;;;;8.67;7.97;;;;;;;11.66;39.51;101822.19;5013146;28;20455;-46
2023/04/06 10:52:15;;;;;;;8.33;7.70;;;;;;;11.87;40.41;101826.91;5014060;28;20978;-48
2023/04/06 10:54:44;;;;;;;8.40;7.73;;;;;;;12.09;40.13;101814.53;5014873;28;20426;-43
2023/04/06 10:57:16;;;;;;;9.03;8.13;;;;;;;11.99;40.00;101813.94;5015138;28;20461;-48
2023/04/06 10:59:45;;;;;;;8.80;8.03;;;;;;;11.87;38.31;101821.56;5014495;28;21132;-49
2023/04/06 11:02:21;;;;;;;6.60;6.10;;;;;;;12.06;38.72;101822.94;5014112;28;20468;-46
2023/04/06 11:04:56;;;;;;;7.97;7.30;;;;;;;11.98;38.28;101814.94;5014408;28;20433;-44
2023/04/06 11:07:24;;;;;;;8.17;7.50;;;;;;;12.07;37.93;101804.00;5014707;28;20464;-44
2023/04/06 11:09:52;;;;;;;7.47;6.70;;;;;;;12.19;38.44;101810.59;5014388;28;20437;-47
2023/04/06 11:12:40;;;;;;;7.40;6.77;;;;;;;12.31;38.00;101805.63;5013461;28;21045;-48
2023/04/06 11:15:09;;;;;;;8.50;7.80;;;;;;;12.24;37.02;101806.56;5013079;28;20437;-42
2023/04/06 11:17:38;;;;;;;6.97;6.47;;;;;;;12.20;37.75;101809.59;5013710;28;20468;-51